Lovundjenta — LK7468 — position and weather

sailwx.info

Track history (hours):
 
Tides and Currents Weather Stations Pressure Air Temp Water Temp Dewpoint Dewpoint Depression Visibility Wind Speed Wind Dir Waves Ship Positions

Lovundjenta

Last reported at 2016-Dec-06 20:23 UTC. Time now 2016-Dec-08 04:08 UTC.
Position N 66°22' E 012°22'.

Length 15 m.

MMSI: 257788900.

Date/timePositionNaut miles runAvg speedWind from/ knotsBaromVisibWave heightAir tempDewpointWater temp
2016-Dec-06 20:23N 66°22' E 012°22'  
2016-Dec-02 14:07N 66°02' E 012°39'915.4
2016-Dec-02 13:33N 66°10' E 012°50'2118.4
2016-Dec-02 12:23N 66°31' E 013°01'5 4.9
2016-Dec-02 11:18N 66°34' E 013°11'4 5.3
2016-Dec-02 10:29N 66°38' E 013°18'1212.4
2016-Dec-02 09:33N 66°34' E 012°50'3 2.9
2016-Dec-02 08:33N 66°33' E 012°57'3 2.8
2016-Dec-02 07:33N 66°31' E 013°01'0 0.0
2016-Dec-02 06:25N 66°31' E 013°01'0 0.0
2016-Dec-02 05:28N 66°31' E 013°01'0 0.0
2016-Dec-02 04:30N 66°31' E 013°01'0 0.0
2016-Dec-02 03:32N 66°31' E 013°01'0 0.3
2016-Dec-02 02:33N 66°30' E 013°00'5 5.3
2016-Dec-02 01:33N 66°35' E 013°08'1 0.8
2016-Dec-02 00:32N 66°34' E 013°10'6 6.0
2016-Dec-01 23:32N 66°32' E 012°56'3 2.9
2016-Dec-01 22:32N 66°31' E 013°01'0 0.0
2016-Dec-01 20:26N 66°31' E 013°01'0 0.0
2016-Dec-01 19:33N 66°31' E 013°01'0 0.0
2016-Dec-01 18:30N 66°31' E 013°01'0 0.0
2016-Dec-01 17:06N 66°31' E 013°01'0 0.0
2016-Dec-01 16:30N 66°31' E 013°01'0 0.0
2016-Dec-01 15:33N 66°31' E 013°01'0 0.0
2016-Dec-01 14:26N 66°31' E 013°01'0 0.0
2016-Dec-01 13:31N 66°31' E 013°01'0 0.0
2016-Dec-01 12:28N 66°31' E 013°01'0 0.0
2016-Dec-01 11:32N 66°31' E 013°01'0 0.0
2016-Dec-01 10:28N 66°31' E 013°01'0 0.0
2016-Dec-01 09:31N 66°31' E 013°01'0 0.0
2016-Dec-01 07:14N 66°31' E 013°01'0 0.0
2016-Dec-01 06:31N 66°31' E 013°01'0 0.0
2016-Dec-01 05:33N 66°31' E 013°01'0 0.0
2016-Dec-01 04:29N 66°31' E 013°01'0 0.0
2016-Dec-01 03:33N 66°31' E 013°01'0 0.0
2016-Dec-01 02:30N 66°31' E 013°01'0 0.0
2016-Dec-01 00:33N 66°31' E 013°01'10 9.7
2016-Nov-30 23:33N 66°38' E 013°18'1010.1
2016-Nov-30 22:33N 66°35' E 012°53'3 3.0
2016-Nov-30 21:33N 66°33' E 012°57'3 2.3
2016-Nov-30 20:25N 66°31' E 013°01'0 0.0
2016-Nov-30 19:32N 66°31' E 013°01'0 0.0
2016-Nov-30 18:32N 66°31' E 013°01'0 0.0
2016-Nov-30 17:31N 66°31' E 013°01'0 0.0
2016-Nov-30 16:30N 66°31' E 013°01'0 0.0
2016-Nov-30 15:32N 66°31' E 013°01'10 9.9
2016-Nov-30 14:34N 66°38' E 013°16'7 6.9
2016-Nov-30 13:33N 66°36' E 012°60'5 4.5
2016-Nov-30 12:32N 66°32' E 012°57'2 0.9
2016-Nov-30 10:20N 66°31' E 013°01'0 0.0
2016-Nov-30 09:20N 66°31' E 013°01'0 0.0
2016-Nov-30 08:30N 66°31' E 013°01'0 0.0
2016-Nov-30 07:30N 66°31' E 013°01'0 0.0
2016-Nov-30 06:33N 66°31' E 013°01'1 1.2
2016-Nov-30 05:32N 66°31' E 012°59'3 3.0
2016-Nov-30 04:33N 66°34' E 012°57'1110.9
2016-Nov-30 03:33N 66°24' E 012°49'8 8.2
2016-Nov-30 02:33N 66°24' E 012°29'1414.2
2016-Nov-30 01:32N 66°31' E 013°01'0 0.0
2016-Nov-30 00:31N 66°31' E 013°01'1414.6
2016-Nov-29 23:31N 66°24' E 012°29'3 3.4
2016-Nov-29 22:33N 66°22' E 012°22'0 0.0
2016-Nov-29 16:31N 66°22' E 012°22'0 0.0
2016-Nov-29 15:32N 66°22' E 012°22'0 0.0
2016-Nov-29 14:21N 66°22' E 012°22'0 0.0
2016-Nov-29 13:19N 66°22' E 012°22'0 0.0
2016-Nov-29 12:25N 66°22' E 012°22'0 0.0
2016-Nov-29 11:32N 66°22' E 012°22'0 0.0
2016-Nov-28 16:32N 66°22' E 012°22'0 0.0
2016-Nov-28 15:33N 66°22' E 012°22'0 0.0
2016-Nov-28 14:31N 66°22' E 012°22'0 0.0
2016-Nov-28 13:33N 66°22' E 012°22'0 0.0
2016-Nov-28 12:33N 66°22' E 012°22'0 0.0
2016-Nov-28 11:30N 66°22' E 012°22'0 0.0
2016-Nov-28 10:31N 66°22' E 012°22'0 0.0
2016-Nov-28 09:10N 66°22' E 012°22'0 0.0
2016-Nov-28 08:33N 66°22' E 012°22'0 0.0
2016-Nov-28 07:20N 66°22' E 012°22'0 0.5
2016-Nov-28 06:32N 66°22' E 012°23'9 9.1
2016-Nov-28 05:33N 66°23' E 012°45'9 8.3
2016-Nov-28 04:25N 66°22' E 012°22'0 0.0
2016-Nov-28 03:33N 66°22' E 012°22'1717.4
2016-Nov-28 02:33N 66°30' E 013°00'1 0.6
2016-Nov-28 01:32N 66°31' E 013°01'0 0.0
2016-Nov-28 00:33N 66°31' E 013°01'7 7.4
2016-Nov-27 23:33N 66°27' E 012°45'1010.2
2016-Nov-27 22:32N 66°22' E 012°22'0 0.0
2016-Nov-27 21:33N 66°22' E 012°22'0 0.0
2016-Nov-27 20:32N 66°22' E 012°22'0 0.0
2016-Nov-27 19:29N 66°22' E 012°22'0 0.0
2016-Nov-27 18:32N 66°22' E 012°22'0 0.0
2016-Nov-27 17:31N 66°22' E 012°22'0 0.0
2016-Nov-27 16:33N 66°22' E 012°22'0 0.0
2016-Nov-27 15:32N 66°22' E 012°22'0 0.0
2016-Nov-27 14:32N 66°22' E 012°22'0 0.0
2016-Nov-27 13:33N 66°22' E 012°22'0 0.0
2016-Nov-27 12:33N 66°22' E 012°22'0 0.0
2016-Nov-27 11:31N 66°22' E 012°22'0 0.0
2016-Nov-27 10:31N 66°22' E 012°22'0 0.0
2016-Nov-27 09:32N 66°22' E 012°22'0 0.0
2016-Nov-27 08:31N 66°22' E 012°22'0 0.0
2016-Nov-27 07:32N 66°22' E 012°22'0 0.0
2016-Nov-27 06:30N 66°22' E 012°22'0 0.0
2016-Nov-27 05:32N 66°22' E 012°22'0 0.0
2016-Nov-27 04:32N 66°22' E 012°22'0 0.0
2016-Nov-27 03:31N 66°22' E 012°22'0 0.0
2016-Nov-27 02:32N 66°22' E 012°22'0 0.0
2016-Nov-27 01:33N 66°22' E 012°22'0 0.0
2016-Nov-27 00:33N 66°22' E 012°22'0 0.0
2016-Nov-26 23:33N 66°22' E 012°22'0 0.0
2016-Nov-26 22:32N 66°22' E 012°22'0 0.0
2016-Nov-26 21:30N 66°22' E 012°22'0 0.0
2016-Nov-26 20:30N 66°22' E 012°22'  
Track history (hours):
 
Tides and Currents Weather Stations Pressure Air Temp Water Temp Dewpoint Dewpoint Depression Visibility Wind Speed Wind Dir Waves Ship Positions

Lovundjenta

Last reported at 2016-Dec-06 20:23 UTC. Time now 2016-Dec-08 04:08 UTC.
Position N 66°22' E 012°22'.

Length 15 m.

MMSI: 257788900.

Date/timePositionNaut miles runAvg speedWind from/ knotsBaromVisibWave heightAir tempDewpointWater temp
2016-Dec-06 20:23N 66°22' E 012°22'  
2016-Dec-02 14:07N 66°02' E 012°39'915.4
2016-Dec-02 13:33N 66°10' E 012°50'2118.4
2016-Dec-02 12:23N 66°31' E 013°01'5 4.9
2016-Dec-02 11:18N 66°34' E 013°11'4 5.3
2016-Dec-02 10:29N 66°38' E 013°18'1212.4
2016-Dec-02 09:33N 66°34' E 012°50'3 2.9
2016-Dec-02 08:33N 66°33' E 012°57'3 2.8
2016-Dec-02 07:33N 66°31' E 013°01'0 0.0
2016-Dec-02 06:25N 66°31' E 013°01'0 0.0
2016-Dec-02 05:28N 66°31' E 013°01'0 0.0
2016-Dec-02 04:30N 66°31' E 013°01'0 0.0
2016-Dec-02 03:32N 66°31' E 013°01'0 0.3
2016-Dec-02 02:33N 66°30' E 013°00'5 5.3
2016-Dec-02 01:33N 66°35' E 013°08'1 0.8
2016-Dec-02 00:32N 66°34' E 013°10'6 6.0
2016-Dec-01 23:32N 66°32' E 012°56'3 2.9
2016-Dec-01 22:32N 66°31' E 013°01'0 0.0
2016-Dec-01 20:26N 66°31' E 013°01'0 0.0
2016-Dec-01 19:33N 66°31' E 013°01'0 0.0
2016-Dec-01 18:30N 66°31' E 013°01'0 0.0
2016-Dec-01 17:06N 66°31' E 013°01'0 0.0
2016-Dec-01 16:30N 66°31' E 013°01'0 0.0
2016-Dec-01 15:33N 66°31' E 013°01'0 0.0
2016-Dec-01 14:26N 66°31' E 013°01'0 0.0
2016-Dec-01 13:31N 66°31' E 013°01'0 0.0
2016-Dec-01 12:28N 66°31' E 013°01'0 0.0
2016-Dec-01 11:32N 66°31' E 013°01'0 0.0
2016-Dec-01 10:28N 66°31' E 013°01'0 0.0
2016-Dec-01 09:31N 66°31' E 013°01'0 0.0
2016-Dec-01 07:14N 66°31' E 013°01'0 0.0
2016-Dec-01 06:31N 66°31' E 013°01'0 0.0
2016-Dec-01 05:33N 66°31' E 013°01'0 0.0
2016-Dec-01 04:29N 66°31' E 013°01'0 0.0
2016-Dec-01 03:33N 66°31' E 013°01'0 0.0
2016-Dec-01 02:30N 66°31' E 013°01'0 0.0
2016-Dec-01 00:33N 66°31' E 013°01'10 9.7
2016-Nov-30 23:33N 66°38' E 013°18'1010.1
2016-Nov-30 22:33N 66°35' E 012°53'3 3.0
2016-Nov-30 21:33N 66°33' E 012°57'3 2.3
2016-Nov-30 20:25N 66°31' E 013°01'0 0.0
2016-Nov-30 19:32N 66°31' E 013°01'0 0.0
2016-Nov-30 18:32N 66°31' E 013°01'0 0.0
2016-Nov-30 17:31N 66°31' E 013°01'0 0.0
2016-Nov-30 16:30N 66°31' E 013°01'0 0.0
2016-Nov-30 15:32N 66°31' E 013°01'10 9.9
2016-Nov-30 14:34N 66°38' E 013°16'7 6.9
2016-Nov-30 13:33N 66°36' E 012°60'5 4.5
2016-Nov-30 12:32N 66°32' E 012°57'2 0.9
2016-Nov-30 10:20N 66°31' E 013°01'0 0.0
2016-Nov-30 09:20N 66°31' E 013°01'0 0.0
2016-Nov-30 08:30N 66°31' E 013°01'0 0.0
2016-Nov-30 07:30N 66°31' E 013°01'0 0.0
2016-Nov-30 06:33N 66°31' E 013°01'1 1.2
2016-Nov-30 05:32N 66°31' E 012°59'3 3.0
2016-Nov-30 04:33N 66°34' E 012°57'1110.9
2016-Nov-30 03:33N 66°24' E 012°49'8 8.2
2016-Nov-30 02:33N 66°24' E 012°29'1414.2
2016-Nov-30 01:32N 66°31' E 013°01'0 0.0
2016-Nov-30 00:31N 66°31' E 013°01'1414.6
2016-Nov-29 23:31N 66°24' E 012°29'3 3.4
2016-Nov-29 22:33N 66°22' E 012°22'0 0.0
2016-Nov-29 16:31N 66°22' E 012°22'0 0.0
2016-Nov-29 15:32N 66°22' E 012°22'0 0.0
2016-Nov-29 14:21N 66°22' E 012°22'0 0.0
2016-Nov-29 13:19N 66°22' E 012°22'0 0.0
2016-Nov-29 12:25N 66°22' E 012°22'0 0.0
2016-Nov-29 11:32N 66°22' E 012°22'0 0.0
2016-Nov-28 16:32N 66°22' E 012°22'0 0.0
2016-Nov-28 15:33N 66°22' E 012°22'0 0.0
2016-Nov-28 14:31N 66°22' E 012°22'0 0.0
2016-Nov-28 13:33N 66°22' E 012°22'0 0.0
2016-Nov-28 12:33N 66°22' E 012°22'0 0.0
2016-Nov-28 11:30N 66°22' E 012°22'0 0.0
2016-Nov-28 10:31N 66°22' E 012°22'0 0.0
2016-Nov-28 09:10N 66°22' E 012°22'0 0.0
2016-Nov-28 08:33N 66°22' E 012°22'0 0.0
2016-Nov-28 07:20N 66°22' E 012°22'0 0.5
2016-Nov-28 06:32N 66°22' E 012°23'9 9.1
2016-Nov-28 05:33N 66°23' E 012°45'9 8.3
2016-Nov-28 04:25N 66°22' E 012°22'0 0.0
2016-Nov-28 03:33N 66°22' E 012°22'1717.4
2016-Nov-28 02:33N 66°30' E 013°00'1 0.6
2016-Nov-28 01:32N 66°31' E 013°01'0 0.0
2016-Nov-28 00:33N 66°31' E 013°01'7 7.4
2016-Nov-27 23:33N 66°27' E 012°45'1010.2
2016-Nov-27 22:32N 66°22' E 012°22'0 0.0
2016-Nov-27 21:33N 66°22' E 012°22'0 0.0
2016-Nov-27 20:32N 66°22' E 012°22'0 0.0
2016-Nov-27 19:29N 66°22' E 012°22'0 0.0
2016-Nov-27 18:32N 66°22' E 012°22'0 0.0
2016-Nov-27 17:31N 66°22' E 012°22'0 0.0
2016-Nov-27 16:33N 66°22' E 012°22'0 0.0
2016-Nov-27 15:32N 66°22' E 012°22'0 0.0
2016-Nov-27 14:32N 66°22' E 012°22'0 0.0
2016-Nov-27 13:33N 66°22' E 012°22'0 0.0
2016-Nov-27 12:33N 66°22' E 012°22'0 0.0
2016-Nov-27 11:31N 66°22' E 012°22'0 0.0
2016-Nov-27 10:31N 66°22' E 012°22'0 0.0
2016-Nov-27 09:32N 66°22' E 012°22'0 0.0
2016-Nov-27 08:31N 66°22' E 012°22'0 0.0
2016-Nov-27 07:32N 66°22' E 012°22'0 0.0
2016-Nov-27 06:30N 66°22' E 012°22'0 0.0
2016-Nov-27 05:32N 66°22' E 012°22'0 0.0
2016-Nov-27 04:32N 66°22' E 012°22'0 0.0
2016-Nov-27 03:31N 66°22' E 012°22'0 0.0
2016-Nov-27 02:32N 66°22' E 012°22'0 0.0
2016-Nov-27 01:33N 66°22' E 012°22'0 0.0
2016-Nov-27 00:33N 66°22' E 012°22'0 0.0
2016-Nov-26 23:33N 66°22' E 012°22'0 0.0
2016-Nov-26 22:32N 66°22' E 012°22'0 0.0
2016-Nov-26 21:30N 66°22' E 012°22'0 0.0
2016-Nov-26 20:30N 66°22' E 012°22'  

Dump ship's entire track history